Time;durP1;ratioP1;P1;durP2;ratioP2;P2;SDS_P1;SDS_P2;PMS_P1;PMS_P2;Temp;Humidity;BMP_temperature;BMP_pressure;BME280_temperature;BME280_humidity;BME280_pressure;Samples;Min_cycle;Max_cycle;Signal;HPM_P1;HPM_P2
2023/07/13 00:00:42;;;;;;;;;;;27.10;51.00;;;;;;1544287;75;675;-57
2023/07/13 00:02:44;;;;;;;;;;;27.20;50.80;;;;;;1549911;75;670;-57
2023/07/13 00:04:46;;;;;;;;;;;27.20;50.90;;;;;;1549716;75;1315;-57
2023/07/13 00:06:48;;;;;;;;;;;27.20;50.80;;;;;;1549235;75;718;-54
2023/07/13 00:08:50;;;;;;;;;;;27.20;50.80;;;;;;1541869;75;1961;-57
2023/07/13 00:10:54;;;;;;;;;;;27.10;50.90;;;;;;1547095;75;670;-57
2023/07/13 00:12:56;;;;;;;;;;;27.10;50.90;;;;;;1541471;75;651;-57
2023/07/13 00:14:58;;;;;;;;;;;27.10;51.00;;;;;;1545249;75;682;-54
2023/07/13 00:17:00;;;;;;;;;;;27.10;51.00;;;;;;1542712;75;756;-56
2023/07/13 00:19:02;;;;;;;;;;;27.10;50.80;;;;;;1538494;75;1584;-56
2023/07/13 00:21:07;;;;;;;;;;;27.20;51.00;;;;;;1541162;75;675;-53
2023/07/13 00:23:09;;;;;;;;;;;27.10;50.70;;;;;;1550318;75;942;-57
2023/07/13 00:25:11;;;;;;;;;;;27.10;50.70;;;;;;1531600;75;797;-57
2023/07/13 00:27:13;;;;;;;;;;;27.10;50.60;;;;;;1545985;75;838;-57
2023/07/13 00:29:16;;;;;;;;;;;27.20;50.70;;;;;;1540554;75;1951;-52
2023/07/13 00:31:18;;;;;;;;;;;27.10;50.70;;;;;;1548470;75;711;-55
2023/07/13 00:33:19;;;;;;;;;;;27.10;50.60;;;;;;1542239;75;1487;-57
2023/07/13 00:35:21;;;;;;;;;;;27.10;50.60;;;;;;1542215;75;761;-57
2023/07/13 00:37:23;;;;;;;;;;;27.20;50.50;;;;;;1552319;75;650;-54
2023/07/13 00:39:25;;;;;;;;;;;27.10;50.70;;;;;;1541038;75;1117;-56
2023/07/13 00:41:27;;;;;;;;;;;27.10;50.50;;;;;;1535217;75;690;-55
2023/07/13 00:43:29;;;;;;;;;;;27.20;50.50;;;;;;1543732;75;624;-56
2023/07/13 00:45:33;;;;;;;;;;;27.10;50.50;;;;;;1537158;75;681;-58
2023/07/13 00:47:34;;;;;;;;;;;27.10;50.70;;;;;;1533441;75;1563;-57
2023/07/13 00:49:36;;;;;;;;;;;27.10;50.50;;;;;;1539679;75;1949;-55
2023/07/13 00:51:40;;;;;;;;;;;27.10;50.50;;;;;;1546276;75;725;-53
2023/07/13 00:53:42;;;;;;;;;;;27.10;50.50;;;;;;1543572;75;774;-59
2023/07/13 00:55:44;;;;;;;;;;;27.20;50.50;;;;;;1546578;75;640;-58
2023/07/13 00:57:45;;;;;;;;;;;27.10;50.60;;;;;;1542916;75;666;-56
2023/07/13 00:59:48;;;;;;;;;;;27.10;51.20;;;;;;1548342;75;1128;-55
2023/07/13 01:01:50;;;;;;;;;;;27.10;50.80;;;;;;1534752;75;1588;-57
2023/07/13 01:03:53;;;;;;;;;;;27.10;50.80;;;;;;1543933;75;744;-57
2023/07/13 01:05:55;;;;;;;;;;;27.10;50.80;;;;;;1538886;75;729;-52
2023/07/13 01:07:57;;;;;;;;;;;27.10;50.80;;;;;;1534693;75;659;-54
2023/07/13 01:09:59;;;;;;;;;;;27.10;50.70;;;;;;1547119;75;1939;-58
2023/07/13 01:12:01;;;;;;;;;;;27.10;51.00;;;;;;1538262;75;720;-58
2023/07/13 01:14:03;;;;;;;;;;;27.10;50.80;;;;;;1540831;75;749;-58
2023/07/13 01:16:08;;;;;;;;;;;27.10;50.70;;;;;;1532394;75;1447;-53
2023/07/13 01:18:20;;;;;;;;;;;27.10;50.60;;;;;;1534056;75;969;-59
2023/07/13 01:20:22;;;;;;;;;;;27.20;50.70;;;;;;1544857;75;940;-57
2023/07/13 01:22:25;;;;;;;;;;;27.10;50.80;;;;;;1538930;75;743;-55
2023/07/13 01:24:27;;;;;;;;;;;27.10;50.70;;;;;;1544916;75;800;-54
2023/07/13 01:26:28;;;;;;;;;;;27.10;50.60;;;;;;1535936;75;685;-57
2023/07/13 01:28:30;;;;;;;;;;;27.10;50.70;;;;;;1541116;75;1601;-57
2023/07/13 01:30:32;;;;;;;;;;;27.20;50.60;;;;;;1530726;75;1946;-57
2023/07/13 01:32:34;;;;;;;;;;;27.10;50.50;;;;;;1542731;75;680;-58
2023/07/13 01:34:37;;;;;;;;;;;27.10;50.30;;;;;;1548437;75;674;-56
2023/07/13 01:36:38;;;;;;;;;;;27.10;50.20;;;;;;1546714;75;760;-57
2023/07/13 01:38:41;;;;;;;;;;;27.10;50.30;;;;;;1549054;75;1165;-57
2023/07/13 01:40:43;;;;;;;;;;;27.10;50.20;;;;;;1542686;75;726;-56
2023/07/13 01:42:45;;;;;;;;;;;27.10;50.30;;;;;;1538363;75;1546;-57
2023/07/13 01:44:47;;;;;;;;;;;27.10;50.30;;;;;;1541786;75;673;-55
2023/07/13 01:46:49;;;;;;;;;;;27.10;50.20;;;;;;1540159;75;701;-54
2023/07/13 01:48:51;;;;;;;;;;;27.10;50.20;;;;;;1548566;75;1195;-58
2023/07/13 01:50:53;;;;;;;;;;;27.10;50.20;;;;;;1539865;75;1924;-54
2023/07/13 01:52:55;;;;;;;;;;;27.10;50.10;;;;;;1538422;75;728;-57
2023/07/13 01:54:57;;;;;;;;;;;27.10;50.10;;;;;;1546224;75;719;-54
2023/07/13 01:56:59;;;;;;;;;;;27.10;50.10;;;;;;1539744;75;1588;-57
2023/07/13 01:59:01;;;;;;;;;;;27.10;50.50;;;;;;1544743;75;1136;-55
2023/07/13 02:01:03;;;;;;;;;;;27.10;50.50;;;;;;1541205;75;757;-57
2023/07/13 02:03:05;;;;;;;;;;;27.10;50.30;;;;;;1547618;75;668;-58
2023/07/13 02:05:07;;;;;;;;;;;27.10;50.10;;;;;;1543569;75;666;-56
2023/07/13 02:07:09;;;;;;;;;;;27.10;50.00;;;;;;1536852;75;712;-56
2023/07/13 02:09:11;;;;;;;;;;;27.10;50.20;;;;;;1536493;75;1211;-56
2023/07/13 02:11:13;;;;;;;;;;;27.10;50.30;;;;;;1543129;75;1933;-56
2023/07/13 02:13:15;;;;;;;;;;;27.00;50.40;;;;;;1544413;75;637;-53
2023/07/13 02:15:16;;;;;;;;;;;27.00;50.70;;;;;;1546968;75;732;-57
2023/07/13 02:17:18;;;;;;;;;;;27.00;50.70;;;;;;1544671;75;783;-55
2023/07/13 02:19:20;;;;;;;;;;;27.00;50.90;;;;;;1554119;75;1112;-57
2023/07/13 02:21:23;;;;;;;;;;;26.90;50.10;;;;;;1541219;75;700;-56
2023/07/13 02:23:25;;;;;;;;;;;27.00;50.60;;;;;;1544322;75;643;-57
2023/07/13 02:25:27;;;;;;;;;;;27.00;50.50;;;;;;1534057;75;1542;-53
2023/07/13 02:27:29;;;;;;;;;;;27.00;50.60;;;;;;1546366;75;696;-56
2023/07/13 02:29:30;;;;;;;;;;;27.00;50.60;;;;;;1547833;75;1935;-57
2023/07/13 02:31:32;;;;;;;;;;;26.90;49.90;;;;;;1551966;75;731;-56
2023/07/13 02:33:34;;;;;;;;;;;26.90;49.80;;;;;;1549132;75;754;-53
2023/07/13 02:35:36;;;;;;;;;;;27.00;50.40;;;;;;1545459;75;677;-55
2023/07/13 02:37:38;;;;;;;;;;;27.00;50.30;;;;;;1542289;75;776;-57
2023/07/13 02:39:41;;;;;;;;;;;27.00;50.40;;;;;;1534579;75;1565;-57
2023/07/13 02:41:43;;;;;;;;;;;27.10;50.40;;;;;;1530793;75;687;-54
2023/07/13 02:43:44;;;;;;;;;;;27.00;50.40;;;;;;1549240;75;651;-56
2023/07/13 02:45:46;;;;;;;;;;;27.00;50.40;;;;;;1548828;75;689;-56
2023/07/13 02:47:48;;;;;;;;;;;26.90;49.70;;;;;;1537637;75;773;-58
2023/07/13 02:49:50;;;;;;;;;;;27.00;50.30;;;;;;1552367;75;1947;-56
2023/07/13 02:51:52;;;;;;;;;;;27.00;50.30;;;;;;1549397;75;671;-55
2023/07/13 02:53:54;;;;;;;;;;;26.90;49.50;;;;;;1523974;75;1594;-55
2023/07/13 02:55:56;;;;;;;;;;;27.00;50.20;;;;;;1540545;75;718;-58
2023/07/13 02:57:58;;;;;;;;;;;27.00;50.10;;;;;;1546308;75;803;-57
2023/07/13 03:00:00;;;;;;;;;;;27.00;50.10;;;;;;1554637;75;1085;-55
2023/07/13 03:02:02;;;;;;;;;;;27.00;50.20;;;;;;1537611;75;758;-57
2023/07/13 03:04:04;;;;;;;;;;;27.10;50.30;;;;;;1546231;75;749;-57
2023/07/13 03:06:08;;;;;;;;;;;27.00;50.10;;;;;;1542383;75;732;-57
2023/07/13 03:08:10;;;;;;;;;;;27.00;50.10;;;;;;1540955;75;1558;-57
2023/07/13 03:10:12;;;;;;;;;;;27.10;50.20;;;;;;1542590;75;1947;-55
2023/07/13 03:12:13;;;;;;;;;;;27.10;50.20;;;;;;1550574;75;733;-53
2023/07/13 03:14:15;;;;;;;;;;;27.00;50.20;;;;;;1550034;75;666;-58
2023/07/13 03:16:17;;;;;;;;;;;27.10;50.10;;;;;;1548906;75;677;-57
2023/07/13 03:18:19;;;;;;;;;;;27.10;50.00;;;;;;1537032;75;1155;-55
2023/07/13 03:20:21;;;;;;;;;;;27.10;49.90;;;;;;1553353;75;767;-58
2023/07/13 03:22:23;;;;;;;;;;;27.10;49.90;;;;;;1550016;75;1565;-57
2023/07/13 03:24:25;;;;;;;;;;;27.10;49.90;;;;;;1549034;75;668;-57
2023/07/13 03:26:27;;;;;;;;;;;27.10;50.00;;;;;;1550285;75;962;-57
2023/07/13 03:28:29;;;;;;;;;;;27.10;50.00;;;;;;1540628;75;1126;-56
2023/07/13 03:30:31;;;;;;;;;;;27.10;50.00;;;;;;1547670;75;2122;-54
2023/07/13 03:32:33;;;;;;;;;;;27.00;50.00;;;;;;1541270;75;750;-58
2023/07/13 03:34:35;;;;;;;;;;;27.00;50.00;;;;;;1544420;75;698;-56
2023/07/13 03:36:36;;;;;;;;;;;27.00;50.00;;;;;;1546903;75;1538;-58
2023/07/13 03:38:38;;;;;;;;;;;27.00;50.00;;;;;;1548349;75;1096;-53
2023/07/13 03:40:40;;;;;;;;;;;27.00;50.00;;;;;;1551478;75;789;-57
2023/07/13 03:42:42;;;;;;;;;;;27.00;50.00;;;;;;1533313;75;664;-57
2023/07/13 03:44:52;;;;;;;;;;;27.10;50.10;;;;;;1540145;75;791;-54
2023/07/13 03:46:50;;;;;;;;;;;27.00;49.90;;;;;;1552944;75;1863;-56
2023/07/13 03:48:52;;;;;;;;;;;27.10;50.10;;;;;;1545379;75;1131;-55
2023/07/13 03:50:54;;;;;;;;;;;27.10;49.80;;;;;;1536025;75;1923;-56
2023/07/13 03:52:57;;;;;;;;;;;27.10;49.80;;;;;;1550394;75;798;-54
2023/07/13 03:54:59;;;;;;;;;;;27.10;49.70;;;;;;1541494;75;755;-56
2023/07/13 03:57:01;;;;;;;;;;;27.10;49.70;;;;;;1554353;75;761;-54
2023/07/13 03:59:03;;;;;;;;;;;27.10;49.60;;;;;;1536901;75;1179;-57
2023/07/13 04:01:05;;;;;;;;;;;27.10;49.70;;;;;;1536093;75;746;-54
2023/07/13 04:03:07;;;;;;;;;;;27.10;49.70;;;;;;1540353;75;634;-58
2023/07/13 04:05:09;;;;;;;;;;;27.10;49.70;;;;;;1546553;75;1457;-56
2023/07/13 04:07:11;;;;;;;;;;;27.10;49.60;;;;;;1545850;75;915;-55
2023/07/13 04:09:13;;;;;;;;;;;27.10;49.80;;;;;;1551241;75;1140;-55
2023/07/13 04:11:14;;;;;;;;;;;27.10;49.70;;;;;;1548779;75;1935;-55
2023/07/13 04:13:16;;;;;;;;;;;27.00;49.70;;;;;;1545104;75;713;-54
2023/07/13 04:15:18;;;;;;;;;;;27.00;49.70;;;;;;1543673;75;687;-57
2023/07/13 04:17:20;;;;;;;;;;;27.00;49.70;;;;;;1545306;75;1537;-55
2023/07/13 04:19:22;;;;;;;;;;;27.00;49.70;;;;;;1553981;75;1083;-58
2023/07/13 04:21:24;;;;;;;;;;;27.00;49.60;;;;;;1547406;75;685;-57
2023/07/13 04:23:26;;;;;;;;;;;27.00;49.50;;;;;;1551867;75;682;-57
2023/07/13 04:25:27;;;;;;;;;;;27.10;49.50;;;;;;1544593;75;755;-55
2023/07/13 04:27:29;;;;;;;;;;;27.00;49.60;;;;;;1545404;75;752;-54
2023/07/13 04:29:31;;;;;;;;;;;27.00;49.70;;;;;;1540072;75;1153;-54
2023/07/13 04:31:33;;;;;;;;;;;27.00;49.80;;;;;;1542997;75;1946;-56
2023/07/13 04:33:35;;;;;;;;;;;26.90;49.20;;;;;;1543878;75;790;-54
2023/07/13 04:35:37;;;;;;;;;;;26.90;49.20;;;;;;1550741;75;651;-57
2023/07/13 04:37:39;;;;;;;;;;;26.90;49.20;;;;;;1549126;75;722;-57
2023/07/13 04:39:41;;;;;;;;;;;26.90;49.20;;;;;;1554307;75;1135;-57
2023/07/13 04:41:43;;;;;;;;;;;26.90;49.20;;;;;;1543715;75;718;-55
2023/07/13 04:43:45;;;;;;;;;;;27.00;49.90;;;;;;1535763;75;776;-54
2023/07/13 04:45:46;;;;;;;;;;;26.90;49.20;;;;;;1544069;75;1308;-56
2023/07/13 04:47:48;;;;;;;;;;;26.90;49.10;;;;;;1549726;75;732;-56
2023/07/13 04:49:50;;;;;;;;;;;27.00;50.00;;;;;;1545147;75;1136;-57
2023/07/13 04:51:52;;;;;;;;;;;27.00;49.80;;;;;;1549315;76;1954;-57
2023/07/13 04:53:54;;;;;;;;;;;27.00;49.90;;;;;;1539314;75;799;-57
2023/07/13 04:55:57;;;;;;;;;;;27.00;49.90;;;;;;1529557;75;763;-56
2023/07/13 04:57:59;;;;;;;;;;;27.00;49.60;;;;;;1543381;75;747;-56
2023/07/13 05:00:05;;;;;;;;;;;27.00;49.60;;;;;;1550109;75;1518;-55
2023/07/13 05:02:05;;;;;;;;;;;27.00;49.60;;;;;;1537292;75;1929;-57
2023/07/13 05:04:07;;;;;;;;;;;27.00;49.60;;;;;;1541824;75;650;-57
2023/07/13 05:06:12;;;;;;;;;;;27.00;49.60;;;;;;1548974;75;698;-54
2023/07/13 05:08:13;;;;;;;;;;;26.90;48.90;;;;;;1541825;75;683;-57
2023/07/13 05:10:16;;;;;;;;;;;26.90;48.90;;;;;;1547924;75;1125;-56
2023/07/13 05:12:19;;;;;;;;;;;26.90;49.10;;;;;;1544153;75;1947;-56
2023/07/13 05:14:21;;;;;;;;;;;26.90;49.20;;;;;;1549751;75;1566;-52
2023/07/13 05:16:22;;;;;;;;;;;26.90;49.30;;;;;;1545773;75;667;-56
2023/07/13 05:18:24;;;;;;;;;;;26.90;49.30;;;;;;1552456;75;1134;-55
2023/07/13 05:20:26;;;;;;;;;;;26.80;49.50;;;;;;1537754;75;724;-57
2023/07/13 05:22:28;;;;;;;;;;;26.80;49.90;;;;;;1541451;75;705;-57
2023/07/13 05:24:32;;;;;;;;;;;26.90;49.60;;;;;;1538941;75;667;-52
2023/07/13 05:26:33;;;;;;;;;;;26.80;49.80;;;;;;1542501;75;2122;-54
2023/07/13 05:28:35;;;;;;;;;;;26.80;49.70;;;;;;1537667;75;1570;-57
2023/07/13 05:30:37;;;;;;;;;;;26.80;50.20;;;;;;1547502;75;1931;-57
2023/07/13 05:32:39;;;;;;;;;;;26.80;50.30;;;;;;1542203;75;673;-57
2023/07/13 05:34:41;;;;;;;;;;;26.80;50.20;;;;;;1533255;75;718;-57
2023/07/13 05:36:43;;;;;;;;;;;26.70;50.00;;;;;;1539471;75;775;-57
2023/07/13 05:38:45;;;;;;;;;;;26.80;50.00;;;;;;1545778;75;1157;-57
2023/07/13 05:40:47;;;;;;;;;;;26.70;50.20;;;;;;1540008;75;669;-54
2023/07/13 05:42:49;;;;;;;;;;;26.80;50.10;;;;;;1543126;75;1571;-57
2023/07/13 05:44:52;;;;;;;;;;;26.80;50.10;;;;;;1548241;75;705;-54
2023/07/13 05:46:56;;;;;;;;;;;26.80;50.10;;;;;;1544191;75;702;-58
2023/07/13 05:48:57;;;;;;;;;;;26.80;50.00;;;;;;1548245;75;2007;-57
2023/07/13 05:50:59;;;;;;;;;;;26.80;50.10;;;;;;1543008;75;1937;-55
2023/07/13 05:53:01;;;;;;;;;;;26.80;50.00;;;;;;1549844;75;678;-53
2023/07/13 05:55:03;;;;;;;;;;;26.70;50.00;;;;;;1548094;75;710;-57
2023/07/13 05:57:05;;;;;;;;;;;26.70;50.00;;;;;;1553987;75;1445;-55
2023/07/13 05:59:07;;;;;;;;;;;26.70;50.00;;;;;;1551340;75;1180;-57
2023/07/13 06:01:12;;;;;;;;;;;26.70;50.00;;;;;;1551845;75;678;-57
2023/07/13 06:03:14;;;;;;;;;;;26.80;50.00;;;;;;1542053;75;753;-55
2023/07/13 06:05:16;;;;;;;;;;;26.70;49.90;;;;;;1540307;75;743;-54
2023/07/13 06:07:18;;;;;;;;;;;26.80;49.80;;;;;;1549241;75;694;-57
2023/07/13 06:09:20;;;;;;;;;;;26.70;49.70;;;;;;1545888;75;1120;-57
2023/07/13 06:11:24;;;;;;;;;;;26.70;49.70;;;;;;1545554;75;1942;-55
2023/07/13 06:13:25;;;;;;;;;;;26.70;49.60;;;;;;1545012;75;1274;-53
2023/07/13 06:15:27;;;;;;;;;;;26.70;49.30;;;;;;1552325;75;691;-54
2023/07/13 06:17:29;;;;;;;;;;;26.70;49.30;;;;;;1549838;75;700;-56
2023/07/13 06:19:31;;;;;;;;;;;26.70;49.20;;;;;;1548369;75;1135;-53
2023/07/13 06:21:33;;;;;;;;;;;26.70;49.20;;;;;;1549660;75;725;-57
2023/07/13 06:23:35;;;;;;;;;;;26.70;49.00;;;;;;1539237;75;770;-56
2023/07/13 06:25:37;;;;;;;;;;;26.60;48.80;;;;;;1540316;75;1532;-56
2023/07/13 06:27:39;;;;;;;;;;;26.70;48.60;;;;;;1539297;75;785;-57
2023/07/13 06:29:41;;;;;;;;;;;26.70;48.40;;;;;;1545968;75;1139;-56
2023/07/13 06:31:42;;;;;;;;;;;26.60;48.40;;;;;;1548746;75;1927;-53
2023/07/13 06:33:44;;;;;;;;;;;26.60;48.40;;;;;;1553810;75;697;-57
2023/07/13 06:35:46;;;;;;;;;;;26.60;48.30;;;;;;1544768;75;778;-56
2023/07/13 06:37:48;;;;;;;;;;;26.60;48.60;;;;;;1547741;75;662;-56
2023/07/13 06:39:50;;;;;;;;;;;26.60;48.70;;;;;;1534543;75;1539;-56
2023/07/13 06:41:52;;;;;;;;;;;26.50;48.60;;;;;;1552223;75;709;-56
2023/07/13 06:43:54;;;;;;;;;;;26.40;48.90;;;;;;1553655;75;750;-56
2023/07/13 06:45:56;;;;;;;;;;;26.30;48.90;;;;;;1541371;75;797;-55
2023/07/13 06:47:58;;;;;;;;;;;26.20;49.10;;;;;;1540637;75;780;-53
2023/07/13 06:49:59;;;;;;;;;;;26.20;49.00;;;;;;1547843;75;1124;-57
2023/07/13 06:52:01;;;;;;;;;;;26.20;48.90;;;;;;1537300;75;1927;-57
2023/07/13 06:54:03;;;;;;;;;;;26.20;48.90;;;;;;1534635;75;805;-57
2023/07/13 06:56:05;;;;;;;;;;;26.20;48.90;;;;;;1538863;75;710;-56
2023/07/13 06:58:07;;;;;;;;;;;26.20;48.40;;;;;;1544187;75;747;-57
2023/07/13 07:00:09;;;;;;;;;;;26.20;48.50;;;;;;1543828;75;1134;-57
2023/07/13 07:02:11;;;;;;;;;;;26.20;48.40;;;;;;1551551;75;730;-56
2023/07/13 07:04:13;;;;;;;;;;;26.20;48.30;;;;;;1546734;75;650;-56
2023/07/13 07:06:17;;;;;;;;;;;26.20;48.10;;;;;;1540280;75;1573;-54
2023/07/13 07:08:19;;;;;;;;;;;26.30;48.20;;;;;;1554777;75;759;-56
2023/07/13 07:10:21;;;;;;;;;;;26.30;48.00;;;;;;1549697;75;659;-57
2023/07/13 07:12:22;;;;;;;;;;;26.30;48.00;;;;;;1551874;75;1940;-57
2023/07/13 07:14:24;;;;;;;;;;;26.30;47.90;;;;;;1549033;75;646;-54
2023/07/13 07:16:26;;;;;;;;;;;26.30;47.90;;;;;;1542838;75;680;-53
2023/07/13 07:18:28;;;;;;;;;;;26.30;48.00;;;;;;1549100;75;1132;-57
2023/07/13 07:20:30;;;;;;;;;;;26.30;47.80;;;;;;1548385;75;1546;-56
2023/07/13 07:22:32;;;;;;;;;;;26.20;47.60;;;;;;1551014;75;713;-53
2023/07/13 07:24:34;;;;;;;;;;;26.20;47.50;;;;;;1548051;75;728;-57
2023/07/13 07:26:36;;;;;;;;;;;26.20;47.40;;;;;;1549229;75;732;-56
2023/07/13 07:28:38;;;;;;;;;;;26.20;47.30;;;;;;1547008;75;1155;-56
2023/07/13 07:30:41;;;;;;;;;;;26.20;47.40;;;;;;1537576;75;628;-56
2023/07/13 07:32:43;;;;;;;;;;;26.20;47.50;;;;;;1541401;75;1942;-53
2023/07/13 07:34:45;;;;;;;;;;;26.20;47.40;;;;;;1541245;75;1575;-57
2023/07/13 07:36:47;;;;;;;;;;;26.20;47.50;;;;;;1545949;75;935;-56
2023/07/13 07:38:49;;;;;;;;;;;26.20;47.60;;;;;;1551646;75;1155;-58
2023/07/13 07:40:53;;;;;;;;;;;26.20;47.70;;;;;;1556624;75;690;-54
2023/07/13 07:42:57;;;;;;;;;;;26.20;47.80;;;;;;1549854;75;811;-56
2023/07/13 07:45:00;;;;;;;;;;;26.20;47.80;;;;;;1547318;75;734;-57
2023/07/13 07:47:02;;;;;;;;;;;26.20;47.80;;;;;;1542983;75;581;-57
2023/07/13 07:49:04;;;;;;;;;;;26.20;47.80;;;;;;1542867;75;1528;-55
2023/07/13 07:51:06;;;;;;;;;;;26.10;47.90;;;;;;1554841;75;698;-54
2023/07/13 07:53:10;;;;;;;;;;;26.20;47.90;;;;;;1539240;75;1941;-57
2023/07/13 07:55:11;;;;;;;;;;;26.20;47.90;;;;;;1541521;75;1383;-55
2023/07/13 07:57:13;;;;;;;;;;;26.20;48.00;;;;;;1546913;75;667;-53
2023/07/13 07:59:15;;;;;;;;;;;26.20;48.10;;;;;;1535023;75;1162;-55
2023/07/13 08:01:17;;;;;;;;;;;26.20;48.00;;;;;;1547013;75;718;-56
2023/07/13 08:03:19;;;;;;;;;;;26.20;48.20;;;;;;1548839;75;1554;-57
2023/07/13 08:05:21;;;;;;;;;;;26.20;48.00;;;;;;1547489;75;685;-56
2023/07/13 08:07:22;;;;;;;;;;;26.20;47.80;;;;;;1543427;75;733;-52
2023/07/13 08:09:24;;;;;;;;;;;26.20;47.90;;;;;;1548242;75;1160;-55
2023/07/13 08:11:26;;;;;;;;;;;26.20;48.10;;;;;;1544758;75;751;-53
2023/07/13 08:13:28;;;;;;;;;;;26.20;48.10;;;;;;1548497;75;1977;-57
2023/07/13 08:15:30;;;;;;;;;;;26.20;48.00;;;;;;1543214;75;699;-57
2023/07/13 08:17:32;;;;;;;;;;;26.20;48.00;;;;;;1543338;75;1541;-57
2023/07/13 08:19:34;;;;;;;;;;;26.20;48.00;;;;;;1549805;75;1120;-54
2023/07/13 08:21:36;;;;;;;;;;;26.20;47.50;;;;;;1554628;75;696;-57
2023/07/13 08:23:38;;;;;;;;;;;26.20;47.30;;;;;;1548642;75;691;-57
2023/07/13 08:25:40;;;;;;;;;;;26.20;47.30;;;;;;1553522;75;753;-56
2023/07/13 08:27:42;;;;;;;;;;;26.10;47.30;;;;;;1550012;75;685;-57
2023/07/13 08:29:44;;;;;;;;;;;26.20;47.30;;;;;;1541817;75;1147;-55
2023/07/13 08:31:46;;;;;;;;;;;26.20;47.20;;;;;;1537062;75;1946;-53
2023/07/13 08:33:48;;;;;;;;;;;26.20;47.10;;;;;;1529471;75;782;-53
2023/07/13 08:35:50;;;;;;;;;;;26.10;47.10;;;;;;1550141;75;730;-55
2023/07/13 08:37:52;;;;;;;;;;;26.20;47.10;;;;;;1553996;75;688;-54
2023/07/13 08:39:54;;;;;;;;;;;26.20;47.10;;;;;;1540287;75;1134;-56
2023/07/13 08:41:56;;;;;;;;;;;26.10;47.10;;;;;;1547371;75;798;-56
2023/07/13 08:44:03;;;;;;;;;;;26.10;46.90;;;;;;1538359;75;810;-57
2023/07/13 08:46:07;;;;;;;;;;;26.10;46.80;;;;;;1541079;75;1520;-57
2023/07/13 08:48:16;;;;;;;;;;;26.10;46.70;;;;;;1550752;75;768;-57
2023/07/13 08:50:18;;;;;;;;;;;26.10;46.50;;;;;;1545261;75;1670;-54
2023/07/13 08:52:25;;;;;;;;;;;26.00;46.30;;;;;;1552709;75;1935;-57
2023/07/13 08:54:34;;;;;;;;;;;26.00;45.90;;;;;;1543194;75;867;-56
2023/07/13 08:56:36;;;;;;;;;;;26.00;45.80;;;;;;1532715;75;674;-55
2023/07/13 08:58:38;;;;;;;;;;;26.10;45.90;;;;;;1535303;75;1623;-55
2023/07/13 09:00:45;;;;;;;;;;;26.10;45.90;;;;;;1532034;75;733;-56
2023/07/13 09:02:51;;;;;;;;;;;26.00;46.00;;;;;;1535310;75;634;-56
2023/07/13 09:04:57;;;;;;;;;;;26.10;46.00;;;;;;1542306;75;1881;-57
2023/07/13 09:07:01;;;;;;;;;;;26.00;46.00;;;;;;1542599;75;754;-54
2023/07/13 09:09:03;;;;;;;;;;;26.00;46.10;;;;;;1542578;75;1182;-54
2023/07/13 09:11:16;;;;;;;;;;;26.00;46.10;;;;;;1545359;75;689;-52
2023/07/13 09:13:22;;;;;;;;;;;26.00;45.90;;;;;;1551426;75;1912;-56
2023/07/13 09:15:26;;;;;;;;;;;26.00;45.80;;;;;;1549070;75;583;-54
2023/07/13 09:17:29;;;;;;;;;;;25.90;45.30;;;;;;1541742;75;1967;-56
2023/07/13 09:19:32;;;;;;;;;;;25.90;45.30;;;;;;1549586;75;1135;-52
2023/07/13 09:21:34;;;;;;;;;;;26.00;45.70;;;;;;1544284;75;679;-54
2023/07/13 09:23:36;;;;;;;;;;;25.90;44.90;;;;;;1547347;75;747;-55
2023/07/13 09:25:39;;;;;;;;;;;25.90;44.70;;;;;;1550143;75;667;-56
2023/07/13 09:27:42;;;;;;;;;;;25.90;44.60;;;;;;1551216;75;1533;-57
2023/07/13 09:29:45;;;;;;;;;;;25.90;44.40;;;;;;1530901;75;1134;-57
2023/07/13 09:31:49;;;;;;;;;;;25.90;44.40;;;;;;1548695;75;1993;-57
2023/07/13 09:33:51;;;;;;;;;;;25.90;44.60;;;;;;1549758;75;1920;-53
2023/07/13 09:35:53;;;;;;;;;;;25.80;44.70;;;;;;1551491;75;691;-56
2023/07/13 09:37:56;;;;;;;;;;;25.90;44.70;;;;;;1536802;75;736;-53
2023/07/13 09:39:58;;;;;;;;;;;25.90;44.60;;;;;;1542447;75;2109;-57
2023/07/13 09:42:17;;;;;;;;;;;25.90;44.80;;;;;;1529389;75;1694;-57
2023/07/13 09:44:20;;;;;;;;;;;25.90;44.80;;;;;;1545509;75;746;-57
2023/07/13 09:46:22;;;;;;;;;;;25.90;45.00;;;;;;1544087;75;1058;-57
2023/07/13 09:48:24;;;;;;;;;;;25.90;45.10;;;;;;1545152;75;1143;-56
2023/07/13 09:50:29;;;;;;;;;;;25.90;44.40;;;;;;1552011;75;748;-54
2023/07/13 09:52:43;;;;;;;;;;;25.90;43.70;;;;;;1546271;75;1938;-57
2023/07/13 09:54:48;;;;;;;;;;;25.90;43.60;;;;;;1543319;75;767;-57
2023/07/13 09:56:51;;;;;;;;;;;25.90;43.40;;;;;;1532916;75;681;-57
2023/07/13 09:58:53;;;;;;;;;;;25.80;43.30;;;;;;1548617;75;1157;-57
2023/07/13 10:01:02;;;;;;;;;;;25.90;43.30;;;;;;1548979;75;725;-56
2023/07/13 10:03:05;;;;;;;;;;;25.80;43.10;;;;;;1550485;75;643;-57
2023/07/13 10:05:09;;;;;;;;;;;25.80;43.10;;;;;;1553127;75;670;-54
2023/07/13 10:07:13;;;;;;;;;;;25.80;42.80;;;;;;1535809;75;1869;-57
2023/07/13 10:09:16;;;;;;;;;;;25.80;42.70;;;;;;1540598;75;1579;-57
2023/07/13 10:11:20;;;;;;;;;;;25.80;42.60;;;;;;1546520;75;1272;-58
2023/07/13 10:13:26;;;;;;;;;;;25.80;42.50;;;;;;1545269;75;1901;-58
2023/07/13 10:15:28;;;;;;;;;;;25.80;42.20;;;;;;1542651;75;1914;-58
2023/07/13 10:17:31;;;;;;;;;;;25.80;42.10;;;;;;1536564;75;717;-58
2023/07/13 10:19:33;;;;;;;;;;;25.90;42.30;;;;;;1547524;75;1135;-57
2023/07/13 10:21:37;;;;;;;;;;;25.80;42.20;;;;;;1544919;75;693;-58
2023/07/13 10:23:39;;;;;;;;;;;25.90;41.80;;;;;;1540300;75;1556;-57
2023/07/13 10:25:41;;;;;;;;;;;25.90;41.80;;;;;;1545229;75;793;-58
2023/07/13 10:27:43;;;;;;;;;;;25.90;42.10;;;;;;1547794;75;670;-58
2023/07/13 10:29:49;;;;;;;;;;;25.90;42.10;;;;;;1538908;75;1090;-58
2023/07/13 10:31:51;;;;;;;;;;;25.90;41.90;;;;;;1546163;75;724;-58
2023/07/13 10:33:53;;;;;;;;;;;25.90;42.00;;;;;;1546666;75;1926;-58
2023/07/13 10:35:57;;;;;;;;;;;25.90;41.90;;;;;;1544733;75;745;-58
2023/07/13 10:38:07;;;;;;;;;;;26.00;42.60;;;;;;1537446;75;1983;-57
2023/07/13 10:40:07;;;;;;;;;;;25.90;42.10;;;;;;1550310;75;1679;-58
2023/07/13 10:42:11;;;;;;;;;;;25.90;41.70;;;;;;1548783;75;754;-58
2023/07/13 10:44:18;;;;;;;;;;;25.90;41.80;;;;;;1543823;75;716;-57
2023/07/13 10:46:21;;;;;;;;;;;25.80;41.30;;;;;;1537997;75;1908;-57
2023/07/13 10:48:23;;;;;;;;;;;25.90;41.30;;;;;;1549325;75;1206;-57
2023/07/13 10:50:30;;;;;;;;;;;25.90;40.90;;;;;;1541520;75;754;-57
2023/07/13 10:52:48;;;;;;;;;;;25.90;40.70;;;;;;1551302;75;1943;-56
2023/07/13 10:54:50;;;;;;;;;;;25.90;40.70;;;;;;1526346;75;732;-57
2023/07/13 10:56:54;;;;;;;;;;;25.90;40.80;;;;;;1548469;75;747;-58
2023/07/13 10:59:03;;;;;;;;;;;25.90;41.20;;;;;;1527408;75;1178;-58
2023/07/13 11:01:15;;;;;;;;;;;25.80;41.50;;;;;;1535101;75;1558;-57
2023/07/13 11:03:18;;;;;;;;;;;25.80;40.80;;;;;;1553967;75;692;-57
2023/07/13 11:05:28;;;;;;;;;;;25.80;40.80;;;;;;1550512;75;1540;-57
2023/07/13 11:07:32;;;;;;;;;;;25.80;40.10;;;;;;1536488;75;732;-58
2023/07/13 11:09:40;;;;;;;;;;;25.90;39.60;;;;;;1548897;75;1174;-57
2023/07/13 11:11:42;;;;;;;;;;;25.90;39.50;;;;;;1551704;75;717;-57
2023/07/13 11:13:48;;;;;;;;;;;25.80;39.70;;;;;;1546248;75;1916;-57
2023/07/13 11:15:50;;;;;;;;;;;25.70;39.80;;;;;;1548573;75;721;-58
2023/07/13 11:17:59;;;;;;;;;;;25.80;39.10;;;;;;1550379;75;727;-58
2023/07/13 11:20:14;;;;;;;;;;;25.80;39.50;;;;;;1552331;75;1695;-57
2023/07/13 11:22:17;;;;;;;;;;;25.70;39.20;;;;;;1543030;75;646;-58
2023/07/13 11:24:18;;;;;;;;;;;25.90;39.60;;;;;;1547583;75;758;-57
2023/07/13 11:26:39;;;;;;;;;;;25.80;39.30;;;;;;1546123;75;794;-58
2023/07/13 11:28:42;;;;;;;;;;;25.80;39.30;;;;;;1546478;75;1156;-58
2023/07/13 11:30:47;;;;;;;;;;;25.80;40.40;;;;;;1539292;75;787;-56
2023/07/13 11:32:54;;;;;;;;;;;25.70;40.20;;;;;;1546586;75;1932;-56
2023/07/13 11:34:56;;;;;;;;;;;25.70;39.90;;;;;;1541014;75;1734;-57
2023/07/13 11:36:59;;;;;;;;;;;25.80;39.40;;;;;;1534576;75;709;-56
2023/07/13 11:39:11;;;;;;;;;;;25.70;38.70;;;;;;1540242;75;1151;-56
2023/07/13 11:41:20;;;;;;;;;;;25.70;38.30;;;;;;1544477;75;1777;-57
2023/07/13 11:43:25;;;;;;;;;;;25.70;38.90;;;;;;1543475;75;593;-56
2023/07/13 11:45:28;;;;;;;;;;;25.80;38.50;;;;;;1539125;75;685;-55
2023/07/13 11:47:31;;;;;;;;;;;25.70;38.50;;;;;;1547802;75;1348;-56
2023/07/13 11:49:32;;;;;;;;;;;25.80;38.40;;;;;;1527309;76;1121;-56
2023/07/13 11:51:35;;;;;;;;;;;25.70;38.50;;;;;;1536265;75;643;-55
2023/07/13 11:53:41;;;;;;;;;;;25.70;38.50;;;;;;1553121;75;1943;-56
2023/07/13 11:55:43;;;;;;;;;;;25.70;37.80;;;;;;1543737;75;608;-56
2023/07/13 11:57:46;;;;;;;;;;;25.80;37.60;;;;;;1546768;75;657;-55
2023/07/13 11:59:48;;;;;;;;;;;25.90;37.40;;;;;;1539396;75;1127;-55
2023/07/13 12:01:52;;;;;;;;;;;25.80;37.30;;;;;;1551615;75;1349;-56
2023/07/13 12:03:54;;;;;;;;;;;25.80;37.90;;;;;;1539428;75;782;-55
2023/07/13 12:06:03;;;;;;;;;;;25.80;37.80;;;;;;1550204;75;847;-55
2023/07/13 12:08:14;;;;;;;;;;;25.80;37.70;;;;;;1550300;75;718;-56
2023/07/13 12:10:20;;;;;;;;;;;25.80;37.50;;;;;;1548249;75;1187;-55
2023/07/13 12:12:22;;;;;;;;;;;25.90;37.30;;;;;;1546557;75;770;-56